WetterOnline ( http://www.wetteronline.de )

Wetter aktuell Harz (in 600m)

Aktuelles Wetter: Braunlage (609m)

6-stündlich | Neueste Meldungen
Ortszeit Temperatur Wetter
So, 17.02. 1:00 4.2° C wolkig
Sa, 16.02. 19:00 6.8° C wolkig
Sa, 16.02. 13:00 12.3° C wolkenlos
Sa, 16.02. 7:00 6.7° C wolkenlos
Sa, 16.02. 1:00 6.0° C wolkenlos
Fr, 15.02. 19:00 3.7° C wolkenlos
Fr, 15.02. 13:00 11.7° C wolkenlos
Fr, 15.02. 7:00 3.6° C wolkenlos
Ortszeit Temperatur Wetter
So, 17.02. 2:00 4.9° C wolkig
So, 17.02. 1:50 4.9° C wolkig
So, 17.02. 1:40 5.4° C wolkig
So, 17.02. 1:30 4.3° C wolkig
So, 17.02. 1:20 4.3° C wolkig
So, 17.02. 1:10 4.3° C wolkig
So, 17.02. 1:00 4.2° C wolkig
So, 17.02. 0:30 5.8° C wolkig
So, 17.02. 0:00 6.1° C wolkig
Sa, 16.02. 23:30 3.7° C wolkig
Sa, 16.02. 23:00 7.0° C wolkig
Ortszeit Relative Feuchte Sichtweite
So, 17.02. 1:00 68% 30 km
Sa, 16.02. 19:00 48% >70 km
Sa, 16.02. 13:00 25% 50 km
Sa, 16.02. 7:00 33% >70 km
Sa, 16.02. 1:00 45% >70 km
Fr, 15.02. 19:00 61% >70 km
Fr, 15.02. 13:00 39% >70 km
Fr, 15.02. 7:00 61% >70 km
Ortszeit Relative Feuchte Sichtweite
So, 17.02. 2:00 64% 35 km
So, 17.02. 1:50 64% -
So, 17.02. 1:40 63% -
So, 17.02. 1:30 68% 30 km
So, 17.02. 1:20 68% -
So, 17.02. 1:10 68% -
So, 17.02. 1:00 68% 30 km
So, 17.02. 0:30 62% 35 km
So, 17.02. 0:00 60% 35 km
Sa, 16.02. 23:30 67% 40 km
Sa, 16.02. 23:00 54% 35 km
Ortszeit Niederschlagsmenge Niederschlagsart
So, 17.02. 1:00 0.0 l/m2 in 6 Std. -
Sa, 16.02. 19:00 0.0 l/m2 in 12 Std. -
Sa, 16.02. 13:00 0.0 l/m2 in 6 Std. -
Sa, 16.02. 7:00 0.0 l/m2 in 12 Std. -
Sa, 16.02. 1:00 0.0 l/m2 in 6 Std. -
Fr, 15.02. 19:00 0.0 l/m2 in 12 Std. -
Fr, 15.02. 13:00 0.0 l/m2 in 6 Std. -
Fr, 15.02. 7:00 0.0 l/m2 in 12 Std. -
Ortszeit Niederschlagsmenge Niederschlagsart
So, 17.02. 2:00 0.0 l/m2 in 1 Std. -
So, 17.02. 1:50 keine Meldung -
So, 17.02. 1:40 keine Meldung -
So, 17.02. 1:30 0.0 l/m2 in 1 Std. -
So, 17.02. 1:20 keine Meldung -
So, 17.02. 1:10 keine Meldung -
So, 17.02. 1:00 0.0 l/m2 in 1 Std. -
So, 17.02. 0:30 0.0 l/m2 in 1 Std. -
So, 17.02. 0:00 0.0 l/m2 in 1 Std. -
Sa, 16.02. 23:30 0.0 l/m2 in 1 Std. -
Sa, 16.02. 23:00 0.0 l/m2 in 1 Std. -
Ortszeit Stärke Spitze Richtung
km/h Bft. km/h Grad Sektor
So, 17.02. 1:00 7 2 22 260° W
Sa, 16.02. 19:00 9 2 31 280° W
Sa, 16.02. 13:00 14 3 29 250° W
Sa, 16.02. 7:00 11 2 22 270° W
Sa, 16.02. 1:00 11 2 19 260° W
Fr, 15.02. 19:00 0 0 22 - -
Fr, 15.02. 13:00 11 2 19 220° SW
Fr, 15.02. 7:00 0 0 11 - -
Ortszeit Stärke Spitze Richtung
km/h Bft. km/h Grad Sektor
So, 17.02. 2:00 9 2 24 310° NW
So, 17.02. 1:50 9 2 - 310° NW
So, 17.02. 1:40 9 2 - 320° NW
So, 17.02. 1:30 7 2 22 290° W
So, 17.02. 1:20 7 2 - 290° W
So, 17.02. 1:10 7 2 - 280° W
So, 17.02. 1:00 7 2 22 260° W
So, 17.02. 0:30 9 2 20 270° W
So, 17.02. 0:00 11 2 20 260° W
Sa, 16.02. 23:30 7 2 18 270° W
Sa, 16.02. 23:00 11 2 22 270° W
Ortszeit Untergrenze Bedeckung Gattung
total tief tief mittel hoch
So, 17.02. 1:00 9000 m 8/8 0/8 - - -
Sa, 16.02. 19:00 10500 m 8/8 0/8 - - -
Sa, 16.02. 13:00 - 0/8 0/8 - - -
Sa, 16.02. 7:00 - 0/8 0/8 - - -
Sa, 16.02. 1:00 - 0/8 0/8 - - -
Fr, 15.02. 19:00 - 0/8 0/8 - - -
Fr, 15.02. 13:00 - 0/8 0/8 - - -
Fr, 15.02. 7:00 - 0/8 0/8 - - -
Ortszeit Bedeckungsgrad in Achtel und Wolkenuntergrenze
So, 17.02. 2:00 8(9000m) 8(9000m)
So, 17.02. 1:50 8(9000m) 8(9000m)
So, 17.02. 1:40 8(9000m) 8(9000m)
So, 17.02. 1:30 8(9000m) 8(9000m)
So, 17.02. 1:20 8(9000m) 8(9000m)
So, 17.02. 1:10 8(9000m) 8(9000m)
So, 17.02. 1:00 8(9000m)
So, 17.02. 0:30 8(9000m)
So, 17.02. 0:00 7(9000m) 8(9000m)
Sa, 16.02. 23:30 8(9000m) 8(10500m)
Sa, 16.02. 23:00 8(9000m) 8(10500m)
Ortszeit Luftdruck NN (hPa) Tendenz (hPa in 3 Std.)
So, 17.02. 1:00 1027 - 0,2
Sa, 16.02. 19:00 1027 0,0
Sa, 16.02. 13:00 1026 - 0,6
Sa, 16.02. 7:00 1028 - 0,8
Sa, 16.02. 1:00 1031 - 1,2
Fr, 15.02. 19:00 1033 - 0,8
Fr, 15.02. 13:00 1033 - 0,6
Fr, 15.02. 7:00 1036 - 0,4
Ortszeit Luftdruck NN (hPa) Tendenz (hPa in 3 Std.)
So, 17.02. 2:00 1027 - 0,1
So, 17.02. 1:50 1027 keine Meldung
So, 17.02. 1:40 1027 keine Meldung
So, 17.02. 1:30 1027 - 0,1
So, 17.02. 1:20 1027 keine Meldung
So, 17.02. 1:10 1027 keine Meldung
So, 17.02. 1:00 1027 - 0,2
So, 17.02. 0:30 1027 - 0,1
So, 17.02. 0:00 1027 - 0,1
Sa, 16.02. 23:30 1027 0,0
Sa, 16.02. 23:00 1026 - 0,2
Ortszeit Schneehöhe (cm)
So, 17.02. 1:00 14
Sa, 16.02. 19:00 14
Sa, 16.02. 13:00 16
Sa, 16.02. 7:00 17
Sa, 16.02. 1:00 17
Fr, 15.02. 19:00 17
Fr, 15.02. 13:00 18
Fr, 15.02. 7:00 19
Ortszeit Schneehöhe (cm)
So, 17.02. 2:00 14
So, 17.02. 1:50 14
So, 17.02. 1:40 14
So, 17.02. 1:30 14
So, 17.02. 1:20 14
So, 17.02. 1:10 14
So, 17.02. 1:00 14
So, 17.02. 0:30 14
So, 17.02. 0:00 14
Sa, 16.02. 23:30 14
Sa, 16.02. 23:00 14
Link zu dieser Seite / Seite empfehlen

Das Wetter in ...